sensor_id;sensor_type;location;lat;lon;timestamp;temperature;humidity
21627;DHT22;10975;47.872;12.972;2022-09-21T00:03:35;8.40;99.90
21627;DHT22;10975;47.872;12.972;2022-09-21T00:06:02;8.40;99.90
21627;DHT22;10975;47.872;12.972;2022-09-21T00:08:29;8.40;99.90
21627;DHT22;10975;47.872;12.972;2022-09-21T00:10:56;8.50;99.90
21627;DHT22;10975;47.872;12.972;2022-09-21T00:13:22;8.50;99.90
21627;DHT22;10975;47.872;12.972;2022-09-21T00:15:50;8.50;99.90
21627;DHT22;10975;47.872;12.972;2022-09-21T00:18:17;8.50;99.90
21627;DHT22;10975;47.872;12.972;2022-09-21T00:20:44;8.50;99.90
21627;DHT22;10975;47.872;12.972;2022-09-21T00:23:10;8.50;99.90
21627;DHT22;10975;47.872;12.972;2022-09-21T00:25:37;8.50;99.90
21627;DHT22;10975;47.872;12.972;2022-09-21T00:28:04;8.50;99.90
21627;DHT22;10975;47.872;12.972;2022-09-21T00:30:30;8.50;99.90
21627;DHT22;10975;47.872;12.972;2022-09-21T00:32:57;8.40;99.90
21627;DHT22;10975;47.872;12.972;2022-09-21T00:35:24;8.40;99.90
21627;DHT22;10975;47.872;12.972;2022-09-21T00:37:51;8.40;99.90
21627;DHT22;10975;47.872;12.972;2022-09-21T00:40:19;8.50;99.90
21627;DHT22;10975;47.872;12.972;2022-09-21T00:42:46;8.50;99.90
21627;DHT22;10975;47.872;12.972;2022-09-21T00:45:13;8.50;99.90
21627;DHT22;10975;47.872;12.972;2022-09-21T00:47:47;8.40;99.90
21627;DHT22;10975;47.872;12.972;2022-09-21T00:50:18;8.40;99.90
21627;DHT22;10975;47.872;12.972;2022-09-21T00:52:49;8.50;99.90
21627;DHT22;10975;47.872;12.972;2022-09-21T00:57:45;8.50;99.90
21627;DHT22;10975;47.872;12.972;2022-09-21T01:00:12;8.50;99.90
21627;DHT22;10975;47.872;12.972;2022-09-21T01:02:39;8.50;99.90
21627;DHT22;10975;47.872;12.972;2022-09-21T01:05:07;8.50;99.90
21627;DHT22;10975;47.872;12.972;2022-09-21T01:07:34;8.50;99.90
21627;DHT22;10975;47.872;12.972;2022-09-21T01:10:04;8.50;99.90
21627;DHT22;10975;47.872;12.972;2022-09-21T01:18:03;8.50;99.90
21627;DHT22;10975;47.872;12.972;2022-09-21T01:25:29;8.40;99.90
21627;DHT22;10975;47.872;12.972;2022-09-21T01:30:25;8.50;99.90
21627;DHT22;10975;47.872;12.972;2022-09-21T01:33:28;8.40;99.90
21627;DHT22;10975;47.872;12.972;2022-09-21T01:35:46;8.40;99.90
21627;DHT22;10975;47.872;12.972;2022-09-21T01:38:16;8.40;99.90
21627;DHT22;10975;47.872;12.972;2022-09-21T01:40:49;8.40;99.90
21627;DHT22;10975;47.872;12.972;2022-09-21T01:43:21;8.40;99.90
21627;DHT22;10975;47.872;12.972;2022-09-21T01:45:51;8.40;99.90
21627;DHT22;10975;47.872;12.972;2022-09-21T01:48:19;8.50;99.90
21627;DHT22;10975;47.872;12.972;2022-09-21T01:50:49;8.40;99.90
21627;DHT22;10975;47.872;12.972;2022-09-21T01:53:19;8.40;99.90
21627;DHT22;10975;47.872;12.972;2022-09-21T01:55:49;8.40;99.90
21627;DHT22;10975;47.872;12.972;2022-09-21T01:58:30;8.40;99.90
21627;DHT22;10975;47.872;12.972;2022-09-21T02:00:58;8.40;99.90
21627;DHT22;10975;47.872;12.972;2022-09-21T02:03:31;8.30;99.90
21627;DHT22;10975;47.872;12.972;2022-09-21T02:06:00;8.30;99.90
21627;DHT22;10975;47.872;12.972;2022-09-21T02:08:31;8.30;99.90
21627;DHT22;10975;47.872;12.972;2022-09-21T02:11:01;8.30;99.90
21627;DHT22;10975;47.872;12.972;2022-09-21T02:13:32;8.30;99.90
21627;DHT22;10975;47.872;12.972;2022-09-21T02:20:59;8.40;99.90
21627;DHT22;10975;47.872;12.972;2022-09-21T02:26:00;8.30;99.90
21627;DHT22;10975;47.872;12.972;2022-09-21T02:28:47;8.30;99.90
21627;DHT22;10975;47.872;12.972;2022-09-21T02:36:40;8.20;99.90
21627;DHT22;10975;47.872;12.972;2022-09-21T02:39:12;8.20;99.90
21627;DHT22;10975;47.872;12.972;2022-09-21T02:44:12;8.20;99.90
21627;DHT22;10975;47.872;12.972;2022-09-21T02:46:45;8.30;99.90
21627;DHT22;10975;47.872;12.972;2022-09-21T02:49:16;8.30;99.90
21627;DHT22;10975;47.872;12.972;2022-09-21T02:51:46;8.30;99.90
21627;DHT22;10975;47.872;12.972;2022-09-21T02:54:13;8.30;99.90
21627;DHT22;10975;47.872;12.972;2022-09-21T02:56:42;8.20;99.90
21627;DHT22;10975;47.872;12.972;2022-09-21T02:59:10;8.30;99.90
21627;DHT22;10975;47.872;12.972;2022-09-21T03:01:37;8.30;99.90
21627;DHT22;10975;47.872;12.972;2022-09-21T03:04:05;8.30;99.90
21627;DHT22;10975;47.872;12.972;2022-09-21T03:06:31;8.30;99.90
21627;DHT22;10975;47.872;12.972;2022-09-21T03:08:59;8.30;99.90
21627;DHT22;10975;47.872;12.972;2022-09-21T03:11:25;8.30;99.90
21627;DHT22;10975;47.872;12.972;2022-09-21T03:13:52;8.40;99.90
21627;DHT22;10975;47.872;12.972;2022-09-21T03:16:19;8.40;99.90
21627;DHT22;10975;47.872;12.972;2022-09-21T03:18:46;8.30;99.90
21627;DHT22;10975;47.872;12.972;2022-09-21T03:21:14;8.30;99.90
21627;DHT22;10975;47.872;12.972;2022-09-21T03:23:40;8.30;99.90
21627;DHT22;10975;47.872;12.972;2022-09-21T03:26:07;8.30;99.90
21627;DHT22;10975;47.872;12.972;2022-09-21T03:28:34;8.30;99.90
21627;DHT22;10975;47.872;12.972;2022-09-21T03:31:01;8.30;99.90
21627;DHT22;10975;47.872;12.972;2022-09-21T03:33:27;8.30;99.90
21627;DHT22;10975;47.872;12.972;2022-09-21T03:35:54;8.30;99.90
21627;DHT22;10975;47.872;12.972;2022-09-21T03:38:21;8.30;99.90
21627;DHT22;10975;47.872;12.972;2022-09-21T03:40:48;8.30;99.90
21627;DHT22;10975;47.872;12.972;2022-09-21T03:43:15;8.30;99.90
21627;DHT22;10975;47.872;12.972;2022-09-21T03:45:42;8.20;99.90
21627;DHT22;10975;47.872;12.972;2022-09-21T03:48:09;8.20;99.90
21627;DHT22;10975;47.872;12.972;2022-09-21T03:50:37;8.20;99.90
21627;DHT22;10975;47.872;12.972;2022-09-21T03:53:04;8.20;99.90
21627;DHT22;10975;47.872;12.972;2022-09-21T03:55:31;8.20;99.90
21627;DHT22;10975;47.872;12.972;2022-09-21T03:57:58;8.20;99.90
21627;DHT22;10975;47.872;12.972;2022-09-21T04:00:25;8.20;99.90
21627;DHT22;10975;47.872;12.972;2022-09-21T04:02:52;8.20;99.90
21627;DHT22;10975;47.872;12.972;2022-09-21T04:05:18;8.20;99.90
21627;DHT22;10975;47.872;12.972;2022-09-21T04:07:46;8.20;99.90
21627;DHT22;10975;47.872;12.972;2022-09-21T04:10:13;8.20;99.90
21627;DHT22;10975;47.872;12.972;2022-09-21T04:12:41;8.20;99.90
21627;DHT22;10975;47.872;12.972;2022-09-21T04:15:12;8.20;99.90
21627;DHT22;10975;47.872;12.972;2022-09-21T04:17:39;8.20;99.90
21627;DHT22;10975;47.872;12.972;2022-09-21T04:20:06;8.20;99.90
21627;DHT22;10975;47.872;12.972;2022-09-21T04:22:34;8.20;99.90
21627;DHT22;10975;47.872;12.972;2022-09-21T04:25:08;8.20;99.90
21627;DHT22;10975;47.872;12.972;2022-09-21T04:27:35;8.10;99.90
21627;DHT22;10975;47.872;12.972;2022-09-21T04:30:02;8.20;99.90
21627;DHT22;10975;47.872;12.972;2022-09-21T04:32:29;8.10;99.90
21627;DHT22;10975;47.872;12.972;2022-09-21T04:34:55;8.10;99.90
21627;DHT22;10975;47.872;12.972;2022-09-21T04:37:22;8.00;99.90
21627;DHT22;10975;47.872;12.972;2022-09-21T04:39:49;8.00;99.90
21627;DHT22;10975;47.872;12.972;2022-09-21T04:42:15;8.00;99.90
21627;DHT22;10975;47.872;12.972;2022-09-21T04:44:42;7.90;99.90
21627;DHT22;10975;47.872;12.972;2022-09-21T04:47:09;7.80;99.90
21627;DHT22;10975;47.872;12.972;2022-09-21T04:49:35;7.80;99.90
21627;DHT22;10975;47.872;12.972;2022-09-21T04:52:03;7.70;99.90
21627;DHT22;10975;47.872;12.972;2022-09-21T04:54:30;7.70;99.90
21627;DHT22;10975;47.872;12.972;2022-09-21T04:56:57;7.60;99.90
21627;DHT22;10975;47.872;12.972;2022-09-21T04:59:24;7.60;99.90
21627;DHT22;10975;47.872;12.972;2022-09-21T05:01:50;7.50;99.90
21627;DHT22;10975;47.872;12.972;2022-09-21T05:04:17;7.50;99.90
21627;DHT22;10975;47.872;12.972;2022-09-21T05:06:44;7.50;99.90
21627;DHT22;10975;47.872;12.972;2022-09-21T05:09:10;7.50;99.90
21627;DHT22;10975;47.872;12.972;2022-09-21T05:11:56;7.40;99.90
21627;DHT22;10975;47.872;12.972;2022-09-21T05:14:23;7.40;99.90
21627;DHT22;10975;47.872;12.972;2022-09-21T05:16:49;7.40;99.90
21627;DHT22;10975;47.872;12.972;2022-09-21T05:19:16;7.40;99.90
21627;DHT22;10975;47.872;12.972;2022-09-21T05:21:43;7.30;99.90
21627;DHT22;10975;47.872;12.972;2022-09-21T05:24:10;7.30;99.90
21627;DHT22;10975;47.872;12.972;2022-09-21T05:26:36;7.30;99.90
21627;DHT22;10975;47.872;12.972;2022-09-21T05:29:03;7.30;99.90
21627;DHT22;10975;47.872;12.972;2022-09-21T05:39:22;7.20;99.90
21627;DHT22;10975;47.872;12.972;2022-09-21T05:41:49;7.20;99.90
21627;DHT22;10975;47.872;12.972;2022-09-21T05:44:16;7.20;99.90
21627;DHT22;10975;47.872;12.972;2022-09-21T05:46:49;7.20;99.90
21627;DHT22;10975;47.872;12.972;2022-09-21T05:54:37;7.20;99.90
21627;DHT22;10975;47.872;12.972;2022-09-21T05:57:14;7.20;99.90
21627;DHT22;10975;47.872;12.972;2022-09-21T05:59:56;7.20;99.90
21627;DHT22;10975;47.872;12.972;2022-09-21T06:04:59;7.10;99.90
21627;DHT22;10975;47.872;12.972;2022-09-21T06:07:27;7.20;99.90
21627;DHT22;10975;47.872;12.972;2022-09-21T06:09:53;7.20;99.90
21627;DHT22;10975;47.872;12.972;2022-09-21T06:12:20;7.20;99.90
21627;DHT22;10975;47.872;12.972;2022-09-21T06:14:47;7.20;99.90
21627;DHT22;10975;47.872;12.972;2022-09-21T06:17:13;7.30;99.90
21627;DHT22;10975;47.872;12.972;2022-09-21T06:19:40;7.30;99.90
21627;DHT22;10975;47.872;12.972;2022-09-21T06:22:07;7.30;99.90
21627;DHT22;10975;47.872;12.972;2022-09-21T06:24:33;7.40;99.90
21627;DHT22;10975;47.872;12.972;2022-09-21T06:27:00;7.40;99.90
21627;DHT22;10975;47.872;12.972;2022-09-21T06:29:27;7.40;99.90
21627;DHT22;10975;47.872;12.972;2022-09-21T06:31:53;7.50;99.90
21627;DHT22;10975;47.872;12.972;2022-09-21T06:34:20;7.50;99.90
21627;DHT22;10975;47.872;12.972;2022-09-21T06:36:47;7.60;99.90
21627;DHT22;10975;47.872;12.972;2022-09-21T06:39:13;7.70;99.90
21627;DHT22;10975;47.872;12.972;2022-09-21T06:41:40;7.70;99.90
21627;DHT22;10975;47.872;12.972;2022-09-21T06:44:07;7.80;99.90
21627;DHT22;10975;47.872;12.972;2022-09-21T06:46:33;7.80;99.90
21627;DHT22;10975;47.872;12.972;2022-09-21T06:49:00;7.90;99.90
21627;DHT22;10975;47.872;12.972;2022-09-21T06:51:27;7.90;99.90
21627;DHT22;10975;47.872;12.972;2022-09-21T06:53:54;8.00;99.90
21627;DHT22;10975;47.872;12.972;2022-09-21T06:56:21;8.00;99.90
21627;DHT22;10975;47.872;12.972;2022-09-21T06:58:48;8.10;99.90
21627;DHT22;10975;47.872;12.972;2022-09-21T07:01:14;8.10;99.90
21627;DHT22;10975;47.872;12.972;2022-09-21T07:03:41;8.20;99.90
21627;DHT22;10975;47.872;12.972;2022-09-21T07:06:09;8.20;99.90
21627;DHT22;10975;47.872;12.972;2022-09-21T07:08:41;8.30;99.90
21627;DHT22;10975;47.872;12.972;2022-09-21T07:11:27;8.30;99.90
21627;DHT22;10975;47.872;12.972;2022-09-21T07:13:54;8.40;99.90
21627;DHT22;10975;47.872;12.972;2022-09-21T07:16:24;8.40;99.90
21627;DHT22;10975;47.872;12.972;2022-09-21T07:18:51;8.50;99.90
21627;DHT22;10975;47.872;12.972;2022-09-21T07:21:17;8.60;99.90
21627;DHT22;10975;47.872;12.972;2022-09-21T07:23:44;8.60;99.90
21627;DHT22;10975;47.872;12.972;2022-09-21T07:26:11;8.60;99.90
21627;DHT22;10975;47.872;12.972;2022-09-21T07:28:38;8.70;99.90
21627;DHT22;10975;47.872;12.972;2022-09-21T07:31:06;8.70;99.90
21627;DHT22;10975;47.872;12.972;2022-09-21T07:33:34;8.80;99.90
21627;DHT22;10975;47.872;12.972;2022-09-21T07:36:02;8.90;99.90
21627;DHT22;10975;47.872;12.972;2022-09-21T07:38:36;9.00;99.90
21627;DHT22;10975;47.872;12.972;2022-09-21T07:41:03;9.00;99.90
21627;DHT22;10975;47.872;12.972;2022-09-21T07:43:30;9.10;99.90
21627;DHT22;10975;47.872;12.972;2022-09-21T07:45:56;9.20;99.90
21627;DHT22;10975;47.872;12.972;2022-09-21T07:48:23;9.20;99.90
21627;DHT22;10975;47.872;12.972;2022-09-21T07:50:50;9.30;99.90
21627;DHT22;10975;47.872;12.972;2022-09-21T07:53:17;9.40;99.90
21627;DHT22;10975;47.872;12.972;2022-09-21T07:55:43;9.40;99.90
21627;DHT22;10975;47.872;12.972;2022-09-21T07:58:10;9.40;99.90
21627;DHT22;10975;47.872;12.972;2022-09-21T08:00:56;9.50;99.90
21627;DHT22;10975;47.872;12.972;2022-09-21T08:03:23;9.50;99.90
21627;DHT22;10975;47.872;12.972;2022-09-21T08:05:49;9.70;99.90
21627;DHT22;10975;47.872;12.972;2022-09-21T08:08:18;9.80;99.90
21627;DHT22;10975;47.872;12.972;2022-09-21T08:10:46;9.80;99.90
21627;DHT22;10975;47.872;12.972;2022-09-21T08:13:13;9.90;99.90
21627;DHT22;10975;47.872;12.972;2022-09-21T08:15:39;10.00;99.90
21627;DHT22;10975;47.872;12.972;2022-09-21T08:18:15;10.00;99.90
21627;DHT22;10975;47.872;12.972;2022-09-21T08:20:42;10.10;99.90
21627;DHT22;10975;47.872;12.972;2022-09-21T08:23:13;10.10;99.90
21627;DHT22;10975;47.872;12.972;2022-09-21T08:25:42;10.20;99.90
21627;DHT22;10975;47.872;12.972;2022-09-21T08:28:09;10.30;99.90
21627;DHT22;10975;47.872;12.972;2022-09-21T08:30:36;10.30;99.90
21627;DHT22;10975;47.872;12.972;2022-09-21T08:33:03;10.40;99.90
21627;DHT22;10975;47.872;12.972;2022-09-21T08:35:30;10.50;99.90
21627;DHT22;10975;47.872;12.972;2022-09-21T08:37:56;10.50;99.90
21627;DHT22;10975;47.872;12.972;2022-09-21T08:40:23;10.70;99.90
21627;DHT22;10975;47.872;12.972;2022-09-21T08:42:53;10.80;99.90
21627;DHT22;10975;47.872;12.972;2022-09-21T08:45:20;11.00;99.90
21627;DHT22;10975;47.872;12.972;2022-09-21T08:47:55;11.10;99.90
21627;DHT22;10975;47.872;12.972;2022-09-21T08:53:14;11.40;99.90
21627;DHT22;10975;47.872;12.972;2022-09-21T08:55:43;11.50;99.90
21627;DHT22;10975;47.872;12.972;2022-09-21T08:58:31;11.70;99.90
21627;DHT22;10975;47.872;12.972;2022-09-21T09:06:09;11.80;99.90
21627;DHT22;10975;47.872;12.972;2022-09-21T09:19:10;11.40;99.90
21627;DHT22;10975;47.872;12.972;2022-09-21T09:21:41;11.50;99.90
21627;DHT22;10975;47.872;12.972;2022-09-21T09:24:23;11.50;99.90
21627;DHT22;10975;47.872;12.972;2022-09-21T09:26:54;11.60;99.90
21627;DHT22;10975;47.872;12.972;2022-09-21T09:29:30;11.50;99.90
21627;DHT22;10975;47.872;12.972;2022-09-21T09:31:58;11.50;99.90
21627;DHT22;10975;47.872;12.972;2022-09-21T09:34:33;11.40;99.90
21627;DHT22;10975;47.872;12.972;2022-09-21T09:37:13;11.40;99.90
21627;DHT22;10975;47.872;12.972;2022-09-21T09:39:41;11.40;99.90
21627;DHT22;10975;47.872;12.972;2022-09-21T09:42:12;11.40;99.90
21627;DHT22;10975;47.872;12.972;2022-09-21T09:45:28;11.40;99.90
21627;DHT22;10975;47.872;12.972;2022-09-21T09:47:35;11.40;99.90
21627;DHT22;10975;47.872;12.972;2022-09-21T09:50:12;11.40;99.90
21627;DHT22;10975;47.872;12.972;2022-09-21T09:52:45;11.50;99.90
21627;DHT22;10975;47.872;12.972;2022-09-21T09:55:34;11.50;99.90
21627;DHT22;10975;47.872;12.972;2022-09-21T09:57:59;11.40;99.90
21627;DHT22;10975;47.872;12.972;2022-09-21T10:00:27;11.40;99.90
21627;DHT22;10975;47.872;12.972;2022-09-21T10:02:57;11.30;99.90
21627;DHT22;10975;47.872;12.972;2022-09-21T10:05:30;11.20;99.90
21627;DHT22;10975;47.872;12.972;2022-09-21T10:07:57;11.20;99.90
21627;DHT22;10975;47.872;12.972;2022-09-21T10:12:54;11.20;99.90
21627;DHT22;10975;47.872;12.972;2022-09-21T10:15:24;11.20;99.90
21627;DHT22;10975;47.872;12.972;2022-09-21T10:18:00;11.20;99.90
21627;DHT22;10975;47.872;12.972;2022-09-21T10:20:29;11.20;99.90
21627;DHT22;10975;47.872;12.972;2022-09-21T10:22:58;11.30;99.90
21627;DHT22;10975;47.872;12.972;2022-09-21T10:25:25;11.40;99.90
21627;DHT22;10975;47.872;12.972;2022-09-21T10:27:52;11.50;99.90
21627;DHT22;10975;47.872;12.972;2022-09-21T10:30:31;11.60;99.90
21627;DHT22;10975;47.872;12.972;2022-09-21T10:32:59;11.60;99.90
21627;DHT22;10975;47.872;12.972;2022-09-21T10:35:25;11.70;99.90
21627;DHT22;10975;47.872;12.972;2022-09-21T10:38:08;11.90;99.90
21627;DHT22;10975;47.872;12.972;2022-09-21T11:31:57;13.80;99.90
21627;DHT22;10975;47.872;12.972;2022-09-21T11:40:13;13.90;99.90
21627;DHT22;10975;47.872;12.972;2022-09-21T11:42:54;13.90;99.90
21627;DHT22;10975;47.872;12.972;2022-09-21T11:45:32;14.00;99.90
21627;DHT22;10975;47.872;12.972;2022-09-21T11:50:55;13.70;99.90
21627;DHT22;10975;47.872;12.972;2022-09-21T11:58:42;13.80;99.90
21627;DHT22;10975;47.872;12.972;2022-09-21T12:11:37;13.80;99.90
21627;DHT22;10975;47.872;12.972;2022-09-21T12:14:23;13.70;99.90
21627;DHT22;10975;47.872;12.972;2022-09-21T12:16:55;13.60;99.90
21627;DHT22;10975;47.872;12.972;2022-09-21T12:19:35;13.70;99.90
21627;DHT22;10975;47.872;12.972;2022-09-21T12:22:12;13.80;99.90
21627;DHT22;10975;47.872;12.972;2022-09-21T12:24:44;14.00;99.90
21627;DHT22;10975;47.872;12.972;2022-09-21T12:29:47;14.10;99.90
21627;DHT22;10975;47.872;12.972;2022-09-21T12:32:24;14.10;99.90
21627;DHT22;10975;47.872;12.972;2022-09-21T12:34:54;14.30;99.90
21627;DHT22;10975;47.872;12.972;2022-09-21T12:37:39;14.30;99.90
21627;DHT22;10975;47.872;12.972;2022-09-21T12:40:17;14.50;99.90
21627;DHT22;10975;47.872;12.972;2022-09-21T12:42:52;14.60;99.90
21627;DHT22;10975;47.872;12.972;2022-09-21T12:45:32;14.80;99.90
21627;DHT22;10975;47.872;12.972;2022-09-21T12:48:07;14.70;99.90
21627;DHT22;10975;47.872;12.972;2022-09-21T12:51:00;14.80;99.90
21627;DHT22;10975;47.872;12.972;2022-09-21T12:53:31;14.90;99.90
21627;DHT22;10975;47.872;12.972;2022-09-21T13:03:36;15.10;99.90
21627;DHT22;10975;47.872;12.972;2022-09-21T13:08:52;15.30;99.90
21627;DHT22;10975;47.872;12.972;2022-09-21T13:11:19;15.60;99.90
21627;DHT22;10975;47.872;12.972;2022-09-21T13:13:51;15.90;99.90
21627;DHT22;10975;47.872;12.972;2022-09-21T13:18:54;16.10;99.90
21627;DHT22;10975;47.872;12.972;2022-09-21T13:21:25;15.90;99.90
21627;DHT22;10975;47.872;12.972;2022-09-21T13:23:57;15.60;99.90
21627;DHT22;10975;47.872;12.972;2022-09-21T13:26:43;15.50;99.90
21627;DHT22;10975;47.872;12.972;2022-09-21T13:31:52;15.10;99.90
21627;DHT22;10975;47.872;12.972;2022-09-21T13:34:27;15.00;99.90
21627;DHT22;10975;47.872;12.972;2022-09-21T13:45:47;14.40;99.90
21627;DHT22;10975;47.872;12.972;2022-09-21T13:47:56;14.30;99.90
21627;DHT22;10975;47.872;12.972;2022-09-21T13:53:06;14.30;99.90
21627;DHT22;10975;47.872;12.972;2022-09-21T13:55:36;14.50;99.90
21627;DHT22;10975;47.872;12.972;2022-09-21T13:58:21;14.70;99.90
21627;DHT22;10975;47.872;12.972;2022-09-21T14:05:52;14.70;99.90
21627;DHT22;10975;47.872;12.972;2022-09-21T14:08:33;14.60;99.90
21627;DHT22;10975;47.872;12.972;2022-09-21T14:11:08;14.50;99.90
21627;DHT22;10975;47.872;12.972;2022-09-21T14:18:48;14.50;99.90
21627;DHT22;10975;47.872;12.972;2022-09-21T14:21:16;14.50;99.90
21627;DHT22;10975;47.872;12.972;2022-09-21T14:26:32;14.30;99.90
21627;DHT22;10975;47.872;12.972;2022-09-21T14:29:16;14.30;99.90
21627;DHT22;10975;47.872;12.972;2022-09-21T14:31:46;14.20;99.90
21627;DHT22;10975;47.872;12.972;2022-09-21T14:34:14;14.30;99.90
21627;DHT22;10975;47.872;12.972;2022-09-21T14:36:49;14.30;99.90
21627;DHT22;10975;47.872;12.972;2022-09-21T14:39:18;14.30;99.90
21627;DHT22;10975;47.872;12.972;2022-09-21T14:41:47;14.30;99.90
21627;DHT22;10975;47.872;12.972;2022-09-21T14:44:24;14.20;99.90
21627;DHT22;10975;47.872;12.972;2022-09-21T14:47:04;14.10;99.90
21627;DHT22;10975;47.872;12.972;2022-09-21T15:00:15;14.10;99.90
21627;DHT22;10975;47.872;12.972;2022-09-21T15:03:00;14.20;99.90
21627;DHT22;10975;47.872;12.972;2022-09-21T15:05:39;14.20;99.90
21627;DHT22;10975;47.872;12.972;2022-09-21T15:11:14;14.00;99.90
21627;DHT22;10975;47.872;12.972;2022-09-21T15:14:05;13.90;99.90
21627;DHT22;10975;47.872;12.972;2022-09-21T15:16:43;13.90;99.90
21627;DHT22;10975;47.872;12.972;2022-09-21T15:19:13;13.80;99.90
21627;DHT22;10975;47.872;12.972;2022-09-21T15:21:49;13.80;99.90
21627;DHT22;10975;47.872;12.972;2022-09-21T15:26:43;13.80;99.90
21627;DHT22;10975;47.872;12.972;2022-09-21T15:29:24;13.80;99.90
21627;DHT22;10975;47.872;12.972;2022-09-21T15:31:52;13.80;99.90
21627;DHT22;10975;47.872;12.972;2022-09-21T15:34:19;13.70;99.90
21627;DHT22;10975;47.872;12.972;2022-09-21T15:36:46;13.70;99.90
21627;DHT22;10975;47.872;12.972;2022-09-21T15:39:20;13.70;99.90
21627;DHT22;10975;47.872;12.972;2022-09-21T15:41:47;13.70;99.90
21627;DHT22;10975;47.872;12.972;2022-09-21T15:44:17;13.70;99.90
21627;DHT22;10975;47.872;12.972;2022-09-21T15:46:50;14.10;99.90
21627;DHT22;10975;47.872;12.972;2022-09-21T15:49:19;14.10;99.90
21627;DHT22;10975;47.872;12.972;2022-09-21T15:51:56;13.90;99.90
21627;DHT22;10975;47.872;12.972;2022-09-21T15:54:35;13.70;99.90
21627;DHT22;10975;47.872;12.972;2022-09-21T15:57:05;13.50;99.90
21627;DHT22;10975;47.872;12.972;2022-09-21T15:59:47;13.40;99.90
21627;DHT22;10975;47.872;12.972;2022-09-21T16:02:20;13.30;99.90
21627;DHT22;10975;47.872;12.972;2022-09-21T16:04:47;13.20;99.90
21627;DHT22;10975;47.872;12.972;2022-09-21T16:09:58;13.00;99.90
21627;DHT22;10975;47.872;12.972;2022-09-21T16:14:52;12.80;99.90
21627;DHT22;10975;47.872;12.972;2022-09-21T16:17:34;12.70;99.90
21627;DHT22;10975;47.872;12.972;2022-09-21T16:20:05;12.60;99.90
21627;DHT22;10975;47.872;12.972;2022-09-21T16:22:47;12.60;99.90
21627;DHT22;10975;47.872;12.972;2022-09-21T16:25:28;12.40;99.90
21627;DHT22;10975;47.872;12.972;2022-09-21T16:27:58;12.30;99.90
21627;DHT22;10975;47.872;12.972;2022-09-21T16:35:50;12.00;99.90
21627;DHT22;10975;47.872;12.972;2022-09-21T16:38:17;11.90;99.90
21627;DHT22;10975;47.872;12.972;2022-09-21T16:40:45;11.80;99.90
21627;DHT22;10975;47.872;12.972;2022-09-21T16:43:12;11.70;99.90
21627;DHT22;10975;47.872;12.972;2022-09-21T16:45:41;11.60;99.90
21627;DHT22;10975;47.872;12.972;2022-09-21T16:48:11;11.50;99.90
21627;DHT22;10975;47.872;12.972;2022-09-21T16:50:39;11.50;99.90
21627;DHT22;10975;47.872;12.972;2022-09-21T16:53:10;11.40;99.90
21627;DHT22;10975;47.872;12.972;2022-09-21T16:55:40;11.30;99.90
21627;DHT22;10975;47.872;12.972;2022-09-21T16:58:11;11.20;99.90
21627;DHT22;10975;47.872;12.972;2022-09-21T17:00:40;11.10;99.90
21627;DHT22;10975;47.872;12.972;2022-09-21T17:03:09;11.00;99.90
21627;DHT22;10975;47.872;12.972;2022-09-21T17:05:37;10.90;99.90
21627;DHT22;10975;47.872;12.972;2022-09-21T17:08:04;10.80;99.90
21627;DHT22;10975;47.872;12.972;2022-09-21T17:10:35;10.70;99.90
21627;DHT22;10975;47.872;12.972;2022-09-21T17:13:05;10.60;99.90
21627;DHT22;10975;47.872;12.972;2022-09-21T17:15:35;10.50;99.90
21627;DHT22;10975;47.872;12.972;2022-09-21T17:18:03;10.40;99.90
21627;DHT22;10975;47.872;12.972;2022-09-21T17:20:32;10.30;99.90
21627;DHT22;10975;47.872;12.972;2022-09-21T17:23:01;10.30;99.90
21627;DHT22;10975;47.872;12.972;2022-09-21T17:25:32;10.20;99.90
21627;DHT22;10975;47.872;12.972;2022-09-21T17:28:02;10.10;99.90
21627;DHT22;10975;47.872;12.972;2022-09-21T17:30:32;10.00;99.90
21627;DHT22;10975;47.872;12.972;2022-09-21T17:33:02;9.90;99.90
21627;DHT22;10975;47.872;12.972;2022-09-21T17:35:31;9.90;99.90
21627;DHT22;10975;47.872;12.972;2022-09-21T17:37:59;9.80;99.90
21627;DHT22;10975;47.872;12.972;2022-09-21T17:40:30;9.70;99.90
21627;DHT22;10975;47.872;12.972;2022-09-21T17:45:48;9.60;99.90
21627;DHT22;10975;47.872;12.972;2022-09-21T17:48:19;9.60;99.90
21627;DHT22;10975;47.872;12.972;2022-09-21T17:50:47;9.50;99.90
21627;DHT22;10975;47.872;12.972;2022-09-21T17:53:14;9.40;99.90
21627;DHT22;10975;47.872;12.972;2022-09-21T18:01:31;9.20;99.90
21627;DHT22;10975;47.872;12.972;2022-09-21T18:03:59;9.10;99.90
21627;DHT22;10975;47.872;12.972;2022-09-21T18:06:27;9.10;99.90
21627;DHT22;10975;47.872;12.972;2022-09-21T18:08:54;9.10;99.90
21627;DHT22;10975;47.872;12.972;2022-09-21T18:14:05;8.90;99.90
21627;DHT22;10975;47.872;12.972;2022-09-21T18:21:48;8.80;99.90
21627;DHT22;10975;47.872;12.972;2022-09-21T18:24:19;8.80;99.90
21627;DHT22;10975;47.872;12.972;2022-09-21T18:26:46;8.80;99.90
21627;DHT22;10975;47.872;12.972;2022-09-21T18:29:19;8.70;99.90
21627;DHT22;10975;47.872;12.972;2022-09-21T18:37:36;8.60;99.90
21627;DHT22;10975;47.872;12.972;2022-09-21T18:40:21;8.60;99.90
21627;DHT22;10975;47.872;12.972;2022-09-21T18:43:03;8.50;99.90
21627;DHT22;10975;47.872;12.972;2022-09-21T18:45:41;8.50;99.90
21627;DHT22;10975;47.872;12.972;2022-09-21T18:48:17;8.40;99.90
21627;DHT22;10975;47.872;12.972;2022-09-21T18:55:41;8.30;99.90
21627;DHT22;10975;47.872;12.972;2022-09-21T18:58:08;8.30;99.90
21627;DHT22;10975;47.872;12.972;2022-09-21T19:00:35;8.20;99.90
21627;DHT22;10975;47.872;12.972;2022-09-21T19:03:03;8.20;99.90
21627;DHT22;10975;47.872;12.972;2022-09-21T19:11:15;8.00;99.90
21627;DHT22;10975;47.872;12.972;2022-09-21T19:16:25;7.90;99.90
21627;DHT22;10975;47.872;12.972;2022-09-21T19:19:12;7.80;99.90
21627;DHT22;10975;47.872;12.972;2022-09-21T19:24:18;7.70;99.90
21627;DHT22;10975;47.872;12.972;2022-09-21T19:29:24;7.70;99.90
21627;DHT22;10975;47.872;12.972;2022-09-21T19:31:55;7.60;99.90
21627;DHT22;10975;47.872;12.972;2022-09-21T19:34:21;7.60;99.90
21627;DHT22;10975;47.872;12.972;2022-09-21T19:36:48;7.60;99.90
21627;DHT22;10975;47.872;12.972;2022-09-21T19:39:15;7.50;99.90
21627;DHT22;10975;47.872;12.972;2022-09-21T19:41:52;7.50;99.90
21627;DHT22;10975;47.872;12.972;2022-09-21T19:46:59;7.50;99.90
21627;DHT22;10975;47.872;12.972;2022-09-21T19:49:50;7.40;99.90
21627;DHT22;10975;47.872;12.972;2022-09-21T19:52:16;7.40;99.90
21627;DHT22;10975;47.872;12.972;2022-09-21T19:54:44;7.40;99.90
21627;DHT22;10975;47.872;12.972;2022-09-21T19:57:29;7.30;99.90
21627;DHT22;10975;47.872;12.972;2022-09-21T20:00:15;7.30;99.90
21627;DHT22;10975;47.872;12.972;2022-09-21T20:05:19;7.10;99.90